Time;durP1;ratioP1;P1;durP2;ratioP2;P2;SDS_P1;SDS_P2;PMS_P1;PMS_P2;Temp;Humidity;BMP_temperature;BMP_pressure;BME280_temperature;BME280_humidity;BME280_pressure;Samples;Min_cycle;Max_cycle;Signal;HPM_P1;HPM_P2
2023/04/02 00:01:27;;;;;;;11.70;4.20;;;;;;;14.99;82.75;99198.14;108411;1281;23259;-68
2023/04/02 00:03:58;;;;;;;19.10;5.30;;;;;;;15.00;82.09;99197.05;108498;1281;21983;-62
2023/04/02 00:06:33;;;;;;;16.10;5.20;;;;;;;14.96;83.21;99191.24;108493;1281;23671;-68
2023/04/02 00:09:20;;;;;;;18.80;4.90;;;;;;;15.03;82.57;99190.02;108570;1281;21983;-68
2023/04/02 00:11:53;;;;;;;17.10;4.60;;;;;;;15.11;81.14;99187.67;108483;1281;22159;-65
2023/04/02 00:14:30;;;;;;;13.20;4.90;;;;;;;15.12;81.02;99180.01;108507;1281;21984;-67
2023/04/02 00:16:57;;;;;;;13.10;4.70;;;;;;;15.12;81.13;99180.90;108533;1281;21995;-62
2023/04/02 00:19:36;;;;;;;13.20;4.60;;;;;;;15.10;81.55;99176.25;108401;1281;21992;-62
2023/04/02 00:22:02;;;;;;;14.50;4.20;;;;;;;15.10;81.19;99171.65;108526;1281;21973;-62
2023/04/02 00:24:28;;;;;;;16.00;4.80;;;;;;;15.10;80.34;99171.64;108542;1281;24390;-62
2023/04/02 00:26:54;;;;;;;17.20;4.80;;;;;;;15.09;80.96;99172.04;108556;1281;22039;-62
2023/04/02 00:29:20;;;;;;;13.60;4.40;;;;;;;15.04;81.68;99172.99;108551;1281;21986;-63
2023/04/02 00:31:51;;;;;;;16.30;5.20;;;;;;;14.95;82.13;99176.30;108505;1281;22000;-62
2023/04/02 00:34:22;;;;;;;19.20;5.00;;;;;;;14.85;82.97;99173.08;108477;1281;21982;-62
2023/04/02 00:36:49;;;;;;;14.40;5.00;;;;;;;14.97;81.88;99168.91;108480;1273;21982;-68
2023/04/02 00:39:23;;;;;;;13.50;4.70;;;;;;;14.99;82.06;99166.20;108515;1281;21990;-68
2023/04/02 00:41:53;;;;;;;20.50;5.40;;;;;;;15.04;80.90;99166.98;108507;1281;21971;-62
2023/04/02 00:44:22;;;;;;;12.90;4.80;;;;;;;15.07;80.71;99165.98;108584;1281;23749;-62
2023/04/02 00:46:48;;;;;;;15.70;4.80;;;;;;;15.05;81.05;99165.20;108292;1282;21989;-62
2023/04/02 00:49:19;;;;;;;14.70;4.70;;;;;;;15.03;81.10;99158.91;108510;1281;21995;-63
2023/04/02 00:51:52;;;;;;;17.30;4.20;;;;;;;14.99;81.66;99155.39;108479;1281;23803;-62
2023/04/02 00:54:19;;;;;;;16.80;4.50;;;;;;;15.05;80.61;99156.52;108466;1281;21988;-62
2023/04/02 00:56:48;;;;;;;16.30;5.20;;;;;;;15.04;81.16;99157.46;108467;1281;21984;-61
2023/04/02 00:59:17;;;;;;;13.60;4.40;;;;;;;15.03;81.08;99158.39;108462;1281;21977;-62
2023/04/02 01:01:43;;;;;;;15.30;4.60;;;;;;;15.03;81.12;99153.45;108453;1281;21989;-67
2023/04/02 01:04:27;;;;;;;18.10;5.00;;;;;;;15.02;80.93;99153.48;108241;1281;21977;-63
2023/04/02 01:06:53;;;;;;;18.10;4.10;;;;;;;15.01;81.13;99150.73;108500;1281;21985;-67
2023/04/02 01:09:32;;;;;;;15.90;4.90;;;;;;;14.98;81.44;99150.35;108452;1281;22002;-68
2023/04/02 01:12:15;;;;;;;18.90;4.80;;;;;;;14.97;81.65;99148.64;108457;1281;22158;-66
2023/04/02 01:14:53;;;;;;;19.80;5.60;;;;;;;14.95;81.96;99146.98;108395;1281;21993;-68
2023/04/02 01:17:41;;;;;;;15.80;4.70;;;;;;;14.92;81.97;99147.27;108574;1281;23713;-62
2023/04/02 01:20:28;;;;;;;15.60;4.80;;;;;;;14.91;81.98;99149.27;108529;1281;21985;-69
2023/04/02 01:23:04;;;;;;;17.30;4.60;;;;;;;14.91;81.67;99147.35;108549;1281;21974;-68
2023/04/02 01:25:38;;;;;;;14.90;4.70;;;;;;;14.90;82.25;99146.16;108504;1282;21988;-69
2023/04/02 01:28:19;;;;;;;14.20;4.90;;;;;;;14.90;82.77;99147.39;107211;1282;1002362;-62
2023/04/02 01:30:53;;;;;;;13.50;4.10;;;;;;;14.95;81.61;99150.14;108501;1282;22003;-62
2023/04/02 01:33:27;;;;;;;16.60;4.80;;;;;;;14.97;81.51;99152.85;108387;1281;21989;-69
2023/04/02 01:36:19;;;;;;;14.70;4.20;;;;;;;14.89;82.06;99156.06;108474;1282;23065;-68
2023/04/02 01:38:50;;;;;;;13.50;4.90;;;;;;;15.00;81.26;99154.86;108415;1281;21984;-69
2023/04/02 01:41:22;;;;;;;19.40;4.40;;;;;;;15.06;80.60;99157.02;108517;1281;21988;-68
2023/04/02 01:43:52;;;;;;;17.10;6.50;;;;;;;15.08;80.25;99157.27;108520;1281;21971;-67
2023/04/02 01:46:32;;;;;;;15.30;5.30;;;;;;;15.11;79.79;99157.30;108605;1281;22085;-69
2023/04/02 01:49:08;;;;;;;15.90;4.30;;;;;;;15.14;79.33;99156.27;108505;1275;22775;-68
2023/04/02 01:51:35;;;;;;;18.40;5.70;;;;;;;15.17;78.93;99156.99;108517;1281;21992;-61
2023/04/02 01:54:01;;;;;;;14.20;4.30;;;;;;;15.17;78.67;99155.39;108308;1282;22718;-62
2023/04/02 01:56:29;;;;;;;17.20;5.20;;;;;;;15.21;78.37;99155.73;108477;1281;22002;-68
2023/04/02 01:58:57;;;;;;;16.50;5.10;;;;;;;15.26;78.19;99154.23;108413;1270;22065;-62
2023/04/02 02:01:31;;;;;;;16.30;5.90;;;;;;;15.32;78.01;99147.55;108541;1281;21993;-65
2023/04/02 02:03:58;;;;;;;14.80;4.70;;;;;;;15.38;77.92;99148.52;108499;1282;22731;-69
2023/04/02 02:06:23;;;;;;;18.50;4.60;;;;;;;15.39;77.25;99149.31;108501;1281;22454;-62
2023/04/02 02:09:03;;;;;;;15.40;4.90;;;;;;;15.40;76.94;99146.27;108307;1282;21985;-62
2023/04/02 02:11:30;;;;;;;16.60;4.80;;;;;;;15.40;76.72;99142.91;108378;1281;22018;-62
2023/04/02 02:13:59;;;;;;;11.10;4.00;;;;;;;15.41;76.67;99143.04;108514;1281;21984;-68
2023/04/02 02:16:40;;;;;;;15.90;4.00;;;;;;;15.41;76.57;99141.08;108431;1281;21982;-61
2023/04/02 02:19:06;;;;;;;18.20;5.10;;;;;;;15.40;76.21;99139.54;108450;1281;22021;-62
2023/04/02 02:21:42;;;;;;;12.10;4.30;;;;;;;15.40;76.02;99140.07;108445;1281;22446;-62
2023/04/02 02:24:17;;;;;;;19.90;6.80;;;;;;;15.41;76.15;99141.63;108594;1281;22458;-68
2023/04/02 02:26:43;;;;;;;16.40;4.60;;;;;;;15.42;75.90;99140.90;108577;1278;21969;-62
2023/04/02 02:29:09;;;;;;;15.70;5.20;;;;;;;15.42;75.75;99143.00;108466;1281;21985;-68
2023/04/02 02:31:35;;;;;;;18.70;4.90;;;;;;;15.42;75.76;99143.00;108124;1282;23068;-66
2023/04/02 02:34:13;;;;;;;15.20;4.90;;;;;;;15.41;75.53;99141.08;108250;1282;22021;-62
2023/04/02 02:36:47;;;;;;;16.00;4.50;;;;;;;15.40;75.42;99137.11;108301;1282;22020;-63
2023/04/02 02:39:26;;;;;;;17.00;4.90;;;;;;;15.41;75.47;99133.16;108455;1282;22039;-65
2023/04/02 02:41:59;;;;;;;16.40;4.20;;;;;;;15.45;75.57;99128.70;108407;1282;22456;-63
2023/04/02 02:44:27;;;;;;;9.20;4.00;;;;;;;15.52;75.67;99123.90;108429;1282;21988;-66
2023/04/02 02:47:05;;;;;;;16.90;4.90;;;;;;;15.59;75.48;99123.00;108495;1282;21984;-63
2023/04/02 02:49:35;;;;;;;22.00;6.20;;;;;;;15.66;75.19;99122.14;108458;1282;21971;-63
2023/04/02 02:52:07;;;;;;;;;;;;;;;15.69;74.74;99118.21;108507;1281;21982;-64
2023/04/02 02:54:38;;;;;;;19.40;5.60;;;;;;;15.70;74.33;99118.01;108613;1281;21988;-63
2023/04/02 02:57:06;;;;;;;14.40;5.00;;;;;;;15.68;74.00;99118.50;108524;1281;21977;-63
2023/04/02 02:59:32;;;;;;;15.30;4.40;;;;;;;15.68;73.95;99111.42;108439;1282;21999;-63
2023/04/02 03:01:59;;;;;;;15.10;4.80;;;;;;;15.69;73.75;99110.64;108341;1282;22022;-63
2023/04/02 03:04:25;;;;;;;14.90;4.80;;;;;;;15.66;73.38;99116.27;108474;1282;21983;-66
2023/04/02 03:06:51;;;;;;;12.90;4.70;;;;;;;15.60;73.04;99116.56;108210;1281;22268;-65
2023/04/02 03:09:22;;;;;;;15.40;4.20;;;;;;;15.54;72.77;99119.38;108396;1281;22152;-67
2023/04/02 03:11:56;;;;;;;15.90;4.90;;;;;;;15.48;72.75;99116.33;108284;1281;22095;-66
2023/04/02 03:14:31;;;;;;;14.50;4.10;;;;;;;15.44;72.86;99117.08;108291;1281;21982;-64
2023/04/02 03:17:01;;;;;;;15.70;4.40;;;;;;;15.40;72.80;99113.02;108470;1281;22134;-66
2023/04/02 03:19:48;;;;;;;;;;;;;;;15.38;72.89;99109.95;108466;1278;21974;-65
2023/04/02 03:22:18;;;;;;;12.70;4.90;;;;;;;15.37;72.76;99108.30;108408;1276;23130;-65
2023/04/02 03:25:26;;;;;;;21.30;6.80;;;;;;;15.32;72.78;99105.66;108390;1281;23488;-66
2023/04/02 03:27:55;;;;;;;12.50;4.80;;;;;;;15.27;72.74;99106.11;106891;1277;1003153;-63
2023/04/02 03:30:36;;;;;;;15.80;5.20;;;;;;;15.26;72.74;99105.64;108567;1281;22931;-66
2023/04/02 03:33:05;;;;;;;16.00;4.80;;;;;;;15.23;72.57;99104.36;108510;1281;23705;-65
2023/04/02 03:35:31;;;;;;;19.70;4.90;;;;;;;15.23;72.53;99104.77;108585;1281;21985;-64
2023/04/02 03:38:03;;;;;;;15.50;4.40;;;;;;;15.23;72.72;99102.27;108461;1281;21982;-65
2023/04/02 03:40:39;;;;;;;12.90;4.20;;;;;;;15.24;72.64;99099.39;108489;1281;21994;-65
2023/04/02 03:43:15;;;;;;;14.30;4.30;;;;;;;15.25;72.53;99096.70;108417;1281;21982;-65
2023/04/02 03:45:44;;;;;;;12.80;4.30;;;;;;;15.27;72.56;99098.88;108385;1280;21999;-66
2023/04/02 03:48:36;;;;;;;15.60;4.50;;;;;;;15.29;72.52;99098.77;108626;1281;21986;-66
2023/04/02 03:51:13;;;;;;;15.60;4.70;;;;;;;15.31;72.35;99097.61;108364;1281;21994;-66
2023/04/02 03:53:38;;;;;;;16.40;5.30;;;;;;;15.30;72.20;99096.06;108457;1281;22146;-66
2023/04/02 03:56:05;;;;;;;13.70;4.40;;;;;;;15.28;72.02;99095.97;108440;1281;21974;-65
2023/04/02 03:58:40;;;;;;;13.10;4.10;;;;;;;15.27;71.94;99100.45;108303;1280;22187;-65
2023/04/02 04:01:24;;;;;;;14.10;3.90;;;;;;;15.26;72.01;99103.49;108496;1281;22754;-65
2023/04/02 04:03:56;;;;;;;14.10;3.70;;;;;;;15.26;72.13;99102.81;108442;1281;21997;-64
2023/04/02 04:06:29;;;;;;;15.50;4.30;;;;;;;15.26;71.98;99102.98;108585;1281;22137;-65
2023/04/02 04:09:09;;;;;;;13.30;3.70;;;;;;;15.26;71.88;99104.04;108365;1281;21982;-65
2023/04/02 04:11:37;;;;;;;16.90;4.10;;;;;;;15.26;71.80;99101.90;108487;1281;21988;-66
2023/04/02 04:14:15;;;;;;;16.70;5.40;;;;;;;15.27;71.86;99100.61;108422;1281;21992;-66
2023/04/02 04:16:52;;;;;;;17.60;5.50;;;;;;;15.28;71.92;99098.63;108394;1281;22076;-66
2023/04/02 04:19:31;;;;;;;14.10;4.60;;;;;;;15.28;71.79;99102.02;108526;1277;22037;-65
2023/04/02 04:22:16;;;;;;;12.90;3.80;;;;;;;15.26;71.78;99102.83;108309;1282;22023;-65
2023/04/02 04:24:44;;;;;;;12.10;3.60;;;;;;;15.23;71.80;99102.81;108599;1280;21985;-65
2023/04/02 04:27:23;;;;;;;8.30;2.70;;;;;;;15.20;71.93;99099.27;108418;1281;21995;-66
2023/04/02 04:29:55;;;;;;;9.70;3.00;;;;;;;15.20;72.00;99098.91;108462;1281;21981;-65
2023/04/02 04:32:32;;;;;;;8.10;3.00;;;;;;;15.19;71.97;99097.34;108467;1281;22023;-65
2023/04/02 04:35:05;;;;;;;10.10;3.20;;;;;;;15.20;72.02;99094.83;108464;1281;22040;-65
2023/04/02 04:37:34;;;;;;;8.70;2.90;;;;;;;15.21;72.17;99094.45;108411;1281;23029;-64
2023/04/02 04:40:17;;;;;;;10.90;2.80;;;;;;;15.22;72.37;99098.48;108516;1281;23733;-66
2023/04/02 04:42:43;;;;;;;9.50;2.90;;;;;;;15.24;72.33;99099.22;108457;1281;22243;-66
2023/04/02 04:45:25;;;;;;;5.80;2.70;;;;;;;15.25;72.45;99100.38;108376;1281;21993;-66
2023/04/02 04:47:54;;;;;;;6.80;2.70;;;;;;;15.27;72.43;99096.89;108375;1281;22044;-65
2023/04/02 04:50:50;;;;;;;5.90;2.70;;;;;;;15.29;72.24;99099.98;108549;1281;21987;-66
2023/04/02 04:53:24;;;;;;;9.30;3.40;;;;;;;15.32;72.15;99102.52;108420;1281;21997;-66
2023/04/02 04:56:01;;;;;;;8.40;3.40;;;;;;;15.34;72.21;99104.21;108434;1281;21985;-67
2023/04/02 04:58:36;;;;;;;7.20;3.00;;;;;;;15.35;72.21;99102.89;108361;1280;23602;-64
2023/04/02 05:01:22;;;;;;;7.10;2.40;;;;;;;15.36;72.05;99102.33;108415;1281;21995;-65
2023/04/02 05:03:54;;;;;;;6.50;2.50;;;;;;;15.38;72.13;99101.15;108388;1281;21990;-66
2023/04/02 05:06:29;;;;;;;5.40;2.20;;;;;;;15.39;72.16;99098.23;108544;1281;21980;-67
2023/04/02 05:08:55;;;;;;;5.70;2.30;;;;;;;15.40;71.96;99093.24;108447;1281;22613;-67
2023/04/02 05:11:31;;;;;;;7.70;2.70;;;;;;;15.42;72.28;99091.59;108263;1281;22441;-66
2023/04/02 05:14:00;;;;;;;12.40;3.30;;;;;;;15.45;72.17;99091.41;108430;1281;21988;-67
2023/04/02 05:16:39;;;;;;;12.70;4.10;;;;;;;15.44;72.05;99089.13;108529;1281;22087;-67
2023/04/02 05:19:43;;;;;;;13.10;4.20;;;;;;;15.44;72.11;99088.43;108514;1281;21991;-65
2023/04/02 05:22:27;;;;;;;8.80;3.50;;;;;;;15.45;72.11;99086.98;108163;1276;21988;-67
2023/04/02 05:25:20;;;;;;;7.60;3.40;;;;;;;15.44;72.01;99089.67;108406;1281;21992;-68
2023/04/02 05:28:41;;;;;;;8.40;3.30;;;;;;;15.45;72.25;99086.46;108483;1277;21983;-65
2023/04/02 05:31:11;;;;;;;7.90;3.10;;;;;;;15.46;72.28;99084.80;107848;1290;22009;-67
2023/04/02 05:33:36;;;;;;;7.20;3.20;;;;;;;15.46;72.35;99084.05;107876;1290;23279;-67
2023/04/02 05:36:03;;;;;;;8.30;3.50;;;;;;;15.48;72.38;99086.48;107888;1281;21984;-65
2023/04/02 05:38:31;;;;;;;10.60;4.60;;;;;;;15.48;72.35;99084.87;108396;1281;21993;-65
2023/04/02 05:41:19;;;;;;;10.10;4.30;;;;;;;15.50;72.37;99083.71;108340;1281;21986;-65
2023/04/02 05:43:47;;;;;;;8.30;3.50;;;;;;;15.52;72.49;99086.27;108393;1281;21984;-68
2023/04/02 05:46:18;;;;;;;12.60;3.90;;;;;;;15.54;72.41;99081.19;108563;1281;21949;-67
2023/04/02 05:48:47;;;;;;;11.50;4.20;;;;;;;15.56;72.38;99081.27;108312;1281;23058;-67
2023/04/02 05:51:43;;;;;;;16.10;5.00;;;;;;;15.57;72.35;99079.95;108356;1279;24115;-66
2023/04/02 05:54:26;;;;;;;15.30;5.40;;;;;;;15.59;72.45;99081.27;108416;1281;21989;-68
2023/04/02 05:56:55;;;;;;;10.80;4.80;;;;;;;15.60;72.41;99082.98;108394;1281;21986;-64
2023/04/02 05:59:23;;;;;;;12.30;4.10;;;;;;;15.62;72.37;99085.55;108312;1281;21982;-65
2023/04/02 06:02:02;;;;;;;12.10;4.50;;;;;;;15.63;72.34;99081.09;108537;1281;22529;-69
2023/04/02 06:04:32;;;;;;;11.30;4.20;;;;;;;15.65;72.42;99082.58;108535;1281;23732;-64
2023/04/02 06:07:02;;;;;;;11.00;4.10;;;;;;;15.66;72.36;99082.70;108299;1281;23634;-67
2023/04/02 06:09:38;;;;;;;;;;;;;;;15.66;72.40;99079.70;108406;1281;21967;-64
2023/04/02 06:12:24;;;;;;;11.70;3.80;;;;;;;15.66;72.25;99078.99;108344;1281;22124;-64
2023/04/02 06:14:49;;;;;;;12.10;4.00;;;;;;;15.65;72.31;99079.05;108346;1281;21991;-64
2023/04/02 06:17:16;;;;;;;11.10;4.90;;;;;;;15.64;72.47;99078.94;108439;1281;22022;-63
2023/04/02 06:19:42;;;;;;;9.40;3.70;;;;;;;15.64;72.42;99080.14;108425;1281;23193;-66
2023/04/02 06:22:32;;;;;;;13.20;3.80;;;;;;;15.64;72.29;99081.74;108503;1281;21990;-66
2023/04/02 06:25:16;;;;;;;12.70;5.10;;;;;;;15.62;72.32;99080.59;108502;1281;21985;-64
2023/04/02 06:27:43;;;;;;;10.20;4.70;;;;;;;15.61;72.35;99081.35;107722;1281;1002573;-65
2023/04/02 06:30:15;;;;;;;8.50;3.60;;;;;;;15.60;72.60;99082.45;108507;1281;21985;-66
2023/04/02 06:32:41;;;;;;;10.90;4.20;;;;;;;15.60;72.65;99083.87;108406;1281;22058;-65
2023/04/02 06:35:11;;;;;;;6.70;3.10;;;;;;;15.59;72.79;99083.39;108505;1277;22077;-65
2023/04/02 06:37:37;;;;;;;7.60;2.70;;;;;;;15.58;72.61;99084.19;108455;1280;22049;-65
2023/04/02 06:40:04;;;;;;;7.80;3.00;;;;;;;15.57;72.65;99084.41;108394;1281;21986;-66
2023/04/02 06:42:36;;;;;;;10.30;3.00;;;;;;;15.58;72.95;99086.83;108294;1281;21989;-65
2023/04/02 06:45:03;;;;;;;8.80;3.20;;;;;;;15.60;72.93;99084.77;108481;1281;21992;-65
2023/04/02 06:47:38;;;;;;;9.10;3.60;;;;;;;15.61;72.81;99086.32;108235;1281;22953;-65
2023/04/02 06:50:13;;;;;;;7.80;2.90;;;;;;;15.61;72.81;99083.99;108369;1281;23901;-65
2023/04/02 06:52:54;;;;;;;6.50;2.40;;;;;;;15.61;72.83;99083.99;108453;1281;21974;-64
2023/04/02 06:55:26;;;;;;;7.10;2.20;;;;;;;15.61;73.00;99084.52;108448;1281;21991;-64
2023/04/02 06:57:51;;;;;;;7.10;2.10;;;;;;;15.63;73.11;99086.04;108465;1281;21983;-65
2023/04/02 07:00:23;;;;;;;3.40;1.70;;;;;;;15.66;73.15;99085.02;108418;1281;22018;-64
2023/04/02 07:02:50;;;;;;;6.80;2.60;;;;;;;15.67;73.18;99087.05;108477;1281;22008;-66
2023/04/02 07:05:16;;;;;;;4.10;1.70;;;;;;;15.68;73.27;99089.48;108302;1281;21990;-65
2023/04/02 07:07:41;;;;;;;5.60;1.60;;;;;;;15.69;73.36;99094.18;108406;1281;24322;-66
2023/04/02 07:10:11;;;;;;;6.40;1.80;;;;;;;15.70;73.44;99092.88;108422;1281;24258;-67
2023/04/02 07:12:37;;;;;;;3.60;2.10;;;;;;;15.72;73.46;99091.23;108529;1281;22764;-66
2023/04/02 07:15:04;;;;;;;5.90;2.40;;;;;;;15.72;73.39;99092.23;108414;1281;21984;-66
2023/04/02 07:17:30;;;;;;;5.70;1.90;;;;;;;15.73;73.47;99090.61;108437;1281;22021;-66
2023/04/02 07:19:56;;;;;;;5.90;1.90;;;;;;;15.74;73.49;99089.15;108556;1281;23052;-65
2023/04/02 07:22:22;;;;;;;4.90;1.60;;;;;;;15.75;73.59;99092.23;108507;1281;21994;-65
2023/04/02 07:24:48;;;;;;;4.50;1.80;;;;;;;15.78;73.68;99093.02;108439;1281;21981;-67
2023/04/02 07:27:14;;;;;;;5.10;2.10;;;;;;;15.78;73.77;99093.01;108493;1281;21982;-65
2023/04/02 07:29:41;;;;;;;5.40;1.90;;;;;;;15.80;73.82;99090.05;108507;1281;21989;-65
2023/04/02 07:32:10;;;;;;;5.30;1.60;;;;;;;15.84;73.86;99090.05;108518;1270;21986;-67
2023/04/02 07:34:37;;;;;;;4.10;2.00;;;;;;;15.86;73.95;99091.00;108334;1278;22156;-65
2023/04/02 07:37:04;;;;;;;5.90;2.00;;;;;;;15.88;73.99;99084.36;108491;1277;22020;-66
2023/04/02 07:39:32;;;;;;;2.70;1.40;;;;;;;15.92;74.09;99086.27;108560;1281;21982;-65
2023/04/02 07:41:59;;;;;;;4.10;1.80;;;;;;;15.97;74.22;99083.36;108441;1281;21982;-65
2023/04/02 07:44:26;;;;;;;4.10;1.70;;;;;;;16.02;74.28;99080.92;108493;1281;21983;-67
2023/04/02 07:46:54;;;;;;;3.80;2.10;;;;;;;16.08;74.29;99080.45;108706;1277;22096;-66
2023/04/02 07:49:20;;;;;;;5.60;2.30;;;;;;;16.12;74.29;99078.10;108492;1277;23647;-66
2023/04/02 07:51:46;;;;;;;6.70;3.20;;;;;;;16.16;74.26;99078.21;108403;1281;22164;-66
2023/04/02 07:54:12;;;;;;;5.10;2.60;;;;;;;16.19;74.20;99079.96;108575;1280;22419;-65
2023/04/02 07:56:38;;;;;;;4.20;2.20;;;;;;;16.23;74.23;99078.88;108538;1281;21981;-66
2023/04/02 07:59:04;;;;;;;6.30;2.30;;;;;;;16.27;74.30;99075.66;108432;1281;21990;-67
2023/04/02 08:01:34;;;;;;;4.80;2.50;;;;;;;16.30;74.35;99079.03;108462;1281;22450;-67
2023/04/02 08:04:02;;;;;;;7.10;2.30;;;;;;;16.33;74.36;99078.67;108441;1281;23692;-67
2023/04/02 08:06:29;;;;;;;6.10;2.30;;;;;;;16.38;74.32;99077.16;108482;1280;21982;-66
2023/04/02 08:08:56;;;;;;;7.20;2.50;;;;;;;16.43;74.49;99083.29;108349;1281;21983;-65
2023/04/02 08:11:22;;;;;;;4.80;2.40;;;;;;;16.46;74.50;99081.80;108455;1281;21990;-67
2023/04/02 08:13:56;;;;;;;6.70;2.30;;;;;;;16.49;74.31;99080.63;108469;1281;23605;-64
2023/04/02 08:16:24;;;;;;;4.20;2.30;;;;;;;16.51;74.35;99080.69;108482;1281;21998;-66
2023/04/02 08:18:50;;;;;;;12.60;3.70;;;;;;;16.54;74.46;99079.10;108462;1281;22045;-66
2023/04/02 08:21:15;;;;;;;8.30;3.50;;;;;;;16.56;74.48;99074.32;108522;1281;21992;-66
2023/04/02 08:23:41;;;;;;;9.80;2.80;;;;;;;16.58;74.41;99073.31;108464;1281;21981;-66
2023/04/02 08:26:07;;;;;;;14.50;3.10;;;;;;;16.58;74.18;99072.45;108419;1281;21983;-66
2023/04/02 08:28:33;;;;;;;10.00;2.90;;;;;;;16.57;74.11;99069.48;108471;1281;22127;-66
2023/04/02 08:31:03;;;;;;;5.80;2.70;;;;;;;16.58;74.02;99066.80;108340;1281;22547;-65
2023/04/02 08:33:29;;;;;;;6.00;2.60;;;;;;;16.59;73.95;99063.75;108499;1277;21983;-66
2023/04/02 08:35:55;;;;;;;6.50;2.60;;;;;;;16.60;73.87;99063.35;108460;1281;22448;-67
2023/04/02 08:38:21;;;;;;;5.30;2.70;;;;;;;16.59;73.84;99060.92;108536;1281;21988;-66
2023/04/02 08:40:48;;;;;;;6.40;2.60;;;;;;;16.57;73.71;99063.11;108475;1281;21980;-68
2023/04/02 08:43:40;;;;;;;8.90;3.80;;;;;;;16.56;73.77;99063.40;108407;1281;21986;-67
2023/04/02 08:46:26;;;;;;;7.30;3.40;;;;;;;16.53;73.69;99064.27;108542;1277;21980;-66
2023/04/02 08:49:02;;;;;;;7.60;3.20;;;;;;;16.52;73.71;99065.39;108423;1281;21988;-66
2023/04/02 08:51:31;;;;;;;5.50;2.90;;;;;;;16.50;73.53;99067.25;108274;1281;21986;-66
2023/04/02 08:54:26;;;;;;;8.90;3.30;;;;;;;16.50;73.65;99064.64;108549;1281;21991;-65
2023/04/02 08:56:59;;;;;;;6.90;3.30;;;;;;;16.47;73.52;99065.85;108462;1281;21990;-66
2023/04/02 08:59:32;;;;;;;8.70;3.50;;;;;;;16.44;73.61;99064.61;108480;1281;22023;-67
2023/04/02 09:02:01;;;;;;;6.30;2.90;;;;;;;16.43;73.77;99067.87;108489;1281;21984;-66
2023/04/02 09:04:26;;;;;;;6.80;2.80;;;;;;;16.43;73.86;99067.49;108473;1281;21971;-65
2023/04/02 09:06:54;;;;;;;8.70;3.20;;;;;;;16.45;74.01;99065.61;108495;1281;21992;-65
2023/04/02 09:09:21;;;;;;;6.40;3.50;;;;;;;16.47;74.04;99067.64;108511;1281;21985;-66
2023/04/02 09:11:59;;;;;;;7.10;3.50;;;;;;;16.48;74.02;99067.37;108512;1281;21990;-67
2023/04/02 09:14:35;;;;;;;7.40;3.50;;;;;;;16.49;73.94;99065.93;108537;1276;22015;-66
2023/04/02 09:17:01;;;;;;;8.80;3.60;;;;;;;16.49;73.87;99066.28;108605;1281;21981;-67
2023/04/02 09:19:38;;;;;;;9.40;3.80;;;;;;;16.49;73.89;99069.77;108310;1277;21989;-70
2023/04/02 09:22:18;;;;;;;8.30;4.10;;;;;;;16.49;73.77;99072.28;108542;1281;22003;-69
2023/04/02 09:24:44;;;;;;;8.60;3.70;;;;;;;16.48;73.73;99071.63;108335;1281;21984;-68
2023/04/02 09:27:24;;;;;;;9.60;3.20;;;;;;;16.48;73.91;99071.95;108597;1281;21987;-68
2023/04/02 09:29:59;;;;;;;9.50;3.30;;;;;;;16.49;73.90;99072.10;108553;1281;22997;-68
2023/04/02 09:32:37;;;;;;;9.10;3.40;;;;;;;16.49;73.99;99067.84;108463;1281;22077;-67
2023/04/02 09:35:08;;;;;;;8.50;3.10;;;;;;;16.50;74.15;99063.71;108479;1281;21992;-69
2023/04/02 09:37:36;;;;;;;8.60;3.30;;;;;;;16.53;74.22;99065.36;108528;1281;22452;-67
2023/04/02 09:40:22;;;;;;;8.80;3.10;;;;;;;16.55;74.39;99067.86;108374;1281;21999;-66
2023/04/02 09:42:48;;;;;;;9.10;3.50;;;;;;;16.57;74.17;99069.34;108390;1281;22037;-66
2023/04/02 09:45:23;;;;;;;11.60;4.20;;;;;;;16.58;74.06;99064.86;107681;1281;1002627;-67
2023/04/02 09:47:50;;;;;;;12.10;3.60;;;;;;;16.57;74.20;99060.70;108430;1281;23650;-67
2023/04/02 09:50:26;;;;;;;10.30;3.50;;;;;;;16.58;74.19;99061.16;108286;1281;22732;-67
2023/04/02 09:52:53;;;;;;;9.60;3.00;;;;;;;16.59;73.98;99062.85;108479;1277;23624;-67
2023/04/02 09:55:21;;;;;;;6.90;3.00;;;;;;;16.60;73.87;99061.23;108142;1281;22731;-67
2023/04/02 09:57:47;;;;;;;8.80;3.20;;;;;;;16.61;74.05;99058.50;108433;1281;23277;-67
2023/04/02 10:00:25;;;;;;;10.30;3.80;;;;;;;16.62;74.01;99060.40;108435;1271;23050;-67
2023/04/02 10:03:25;;;;;;;7.70;3.10;;;;;;;16.63;73.90;99061.92;109314;1281;23844;-67
2023/04/02 10:06:10;;;;;;;10.30;3.10;;;;;;;16.64;74.01;99061.15;108189;1281;21979;-67
2023/04/02 10:08:38;;;;;;;6.80;2.80;;;;;;;16.66;74.02;99064.42;108487;1277;23124;-67
2023/04/02 10:11:08;;;;;;;7.70;2.90;;;;;;;16.67;74.16;99060.96;108447;1281;21989;-67
2023/04/02 10:13:47;;;;;;;8.40;3.50;;;;;;;16.69;73.97;99059.45;108332;1281;196070;-67
2023/04/02 10:16:26;;;;;;;11.30;4.20;;;;;;;16.69;73.79;99060.88;108534;1281;22498;-66
2023/04/02 10:18:57;;;;;;;7.50;3.00;;;;;;;16.70;73.87;99061.36;108462;1281;21947;-66
2023/04/02 10:21:32;;;;;;;5.30;2.70;;;;;;;16.70;73.95;99057.96;108439;1281;22444;-66
2023/04/02 10:23:58;;;;;;;6.30;3.30;;;;;;;16.70;73.92;99060.63;108481;1281;22141;-66
2023/04/02 10:26:27;;;;;;;6.30;2.60;;;;;;;16.71;73.97;99061.45;108435;1281;23054;-66
2023/04/02 10:29:11;;;;;;;6.10;2.30;;;;;;;16.73;74.12;99062.42;108466;1277;23046;-66
2023/04/02 10:31:53;;;;;;;7.20;2.30;;;;;;;16.77;74.19;99063.08;108481;1281;21974;-67
2023/04/02 10:34:45;;;;;;;5.60;2.50;;;;;;;16.80;74.14;99065.37;108414;1281;23233;-67
2023/04/02 10:37:45;;;;;;;5.90;2.30;;;;;;;16.81;74.04;99067.42;108378;1281;23495;-67
2023/04/02 10:40:26;;;;;;;5.90;2.10;;;;;;;16.82;73.89;99065.61;108428;1268;21982;-67
2023/04/02 10:42:55;;;;;;;5.50;2.20;;;;;;;16.82;73.79;99069.69;108425;1281;23695;-68
2023/04/02 10:45:35;;;;;;;6.00;3.00;;;;;;;16.82;73.99;99070.54;108476;1280;21992;-68
2023/04/02 10:48:10;;;;;;;6.80;2.50;;;;;;;16.85;73.85;99074.45;108424;1280;21982;-68
2023/04/02 10:50:40;;;;;;;6.00;2.30;;;;;;;16.84;73.78;99075.05;108429;1281;21988;-68
2023/04/02 10:53:14;;;;;;;4.80;2.60;;;;;;;16.76;74.26;99077.48;107645;1281;1002518;-68
2023/04/02 10:55:43;;;;;;;5.40;2.60;;;;;;;16.73;74.25;99075.85;108413;1282;21978;-68
2023/04/02 10:58:21;;;;;;;7.80;3.30;;;;;;;16.73;74.35;99075.90;108371;1281;22614;-68
2023/04/02 11:01:18;;;;;;;9.40;4.50;;;;;;;16.73;74.40;99080.11;108445;1281;21987;-68
2023/04/02 11:03:49;;;;;;;9.70;5.10;;;;;;;16.73;74.22;99084.19;108506;1281;22049;-67
2023/04/02 11:06:24;;;;;;;11.50;5.90;;;;;;;16.73;74.31;99084.03;108566;1278;21985;-68
2023/04/02 11:08:54;;;;;;;8.50;5.30;;;;;;;16.73;74.34;99085.61;108407;1281;22765;-68
2023/04/02 11:11:22;;;;;;;10.40;6.00;;;;;;;16.74;74.31;99085.75;108624;1281;21986;-68
2023/04/02 11:14:21;;;;;;;7.90;4.60;;;;;;;16.74;74.33;99087.84;108555;1278;21995;-68
2023/04/02 11:16:50;;;;;;;6.80;4.00;;;;;;;16.75;74.36;99090.46;108413;1281;21986;-68
2023/04/02 11:19:16;;;;;;;6.50;4.30;;;;;;;16.74;74.24;99093.71;108484;1281;22339;-68
2023/04/02 11:21:55;;;;;;;7.60;4.40;;;;;;;16.74;75.04;99094.43;108389;1280;23174;-68
2023/04/02 11:24:23;;;;;;;6.90;4.00;;;;;;;16.74;74.91;99100.42;108419;1281;21976;-68
2023/04/02 11:26:49;;;;;;;7.60;4.20;;;;;;;16.76;74.75;99100.84;108538;1281;21981;-68
2023/04/02 11:29:21;;;;;;;7.20;4.50;;;;;;;16.77;74.53;99099.74;108356;1281;21975;-68
2023/04/02 11:32:11;;;;;;;7.40;4.10;;;;;;;16.78;74.42;99100.54;108368;1281;21989;-68
2023/04/02 11:34:40;;;;;;;8.50;6.00;;;;;;;16.79;74.26;99100.64;108347;1281;23634;-68
2023/04/02 11:37:09;;;;;;;6.50;4.50;;;;;;;16.78;74.24;99102.12;108427;1281;22048;-68
2023/04/02 11:39:58;;;;;;;8.00;5.30;;;;;;;16.76;74.48;99106.89;108398;1281;21976;-68
2023/04/02 11:42:51;;;;;;;7.20;4.30;;;;;;;16.77;74.65;99103.10;108598;1281;22143;-68
2023/04/02 11:45:23;;;;;;;6.80;4.80;;;;;;;16.80;74.52;99102.03;108515;1281;23622;-68
2023/04/02 11:47:58;;;;;;;7.00;4.40;;;;;;;16.82;74.60;99098.89;108408;1281;21985;-67
2023/04/02 11:50:32;;;;;;;6.90;4.80;;;;;;;16.85;74.69;99099.64;108330;1281;22015;-68